sensor_id;sensor_type;location;lat;lon;timestamp;P1;durP1;ratioP1;P2;durP2;ratioP2
37485;SDS011;23341;50.296;18.960;2023-02-15T00:03:02;45.92;;;29.42;;
37485;SDS011;23341;50.296;18.960;2023-02-15T00:08:06;41.53;;;26.73;;
37485;SDS011;23341;50.296;18.960;2023-02-15T00:13:11;34.65;;;22.45;;
37485;SDS011;23341;50.296;18.960;2023-02-15T00:18:14;36.63;;;22.00;;
37485;SDS011;23341;50.296;18.960;2023-02-15T00:23:18;27.70;;;18.77;;
37485;SDS011;23341;50.296;18.960;2023-02-15T00:28:23;37.88;;;24.98;;
37485;SDS011;23341;50.296;18.960;2023-02-15T00:33:27;43.78;;;27.10;;
37485;SDS011;23341;50.296;18.960;2023-02-15T00:38:31;41.35;;;26.30;;
37485;SDS011;23341;50.296;18.960;2023-02-15T00:43:37;40.13;;;24.00;;
37485;SDS011;23341;50.296;18.960;2023-02-15T00:48:41;32.60;;;22.88;;
37485;SDS011;23341;50.296;18.960;2023-02-15T00:53:46;26.55;;;17.90;;
37485;SDS011;23341;50.296;18.960;2023-02-15T00:58:51;38.25;;;24.35;;
37485;SDS011;23341;50.296;18.960;2023-02-15T01:03:55;37.05;;;26.92;;
37485;SDS011;23341;50.296;18.960;2023-02-15T01:08:58;36.35;;;21.73;;
37485;SDS011;23341;50.296;18.960;2023-02-15T01:14:05;41.03;;;26.40;;
37485;SDS011;23341;50.296;18.960;2023-02-15T01:19:12;44.25;;;27.83;;
37485;SDS011;23341;50.296;18.960;2023-02-15T01:24:16;21.55;;;15.90;;
37485;SDS011;23341;50.296;18.960;2023-02-15T01:29:22;33.35;;;21.98;;
37485;SDS011;23341;50.296;18.960;2023-02-15T01:34:25;37.92;;;24.73;;
37485;SDS011;23341;50.296;18.960;2023-02-15T01:39:31;38.05;;;23.30;;
37485;SDS011;23341;50.296;18.960;2023-02-15T01:44:52;33.47;;;21.55;;
37485;SDS011;23341;50.296;18.960;2023-02-15T01:50:00;30.67;;;18.42;;
37485;SDS011;23341;50.296;18.960;2023-02-15T01:55:10;33.60;;;20.95;;
37485;SDS011;23341;50.296;18.960;2023-02-15T02:00:16;30.65;;;19.65;;
37485;SDS011;23341;50.296;18.960;2023-02-15T02:05:22;35.85;;;20.63;;
37485;SDS011;23341;50.296;18.960;2023-02-15T02:10:26;33.60;;;20.38;;
37485;SDS011;23341;50.296;18.960;2023-02-15T02:15:37;40.72;;;23.35;;
37485;SDS011;23341;50.296;18.960;2023-02-15T02:37:59;43.10;;;21.63;;
37485;SDS011;23341;50.296;18.960;2023-02-15T02:43:15;35.97;;;20.95;;
37485;SDS011;23341;50.296;18.960;2023-02-15T02:48:22;33.72;;;21.25;;
37485;SDS011;23341;50.296;18.960;2023-02-15T02:53:31;37.35;;;21.67;;
37485;SDS011;23341;50.296;18.960;2023-02-15T02:58:37;34.33;;;21.58;;
37485;SDS011;23341;50.296;18.960;2023-02-15T03:09:35;37.28;;;22.17;;
37485;SDS011;23341;50.296;18.960;2023-02-15T03:14:50;39.42;;;23.05;;
37485;SDS011;23341;50.296;18.960;2023-02-15T03:20:00;40.35;;;23.15;;
37485;SDS011;23341;50.296;18.960;2023-02-15T03:25:12;40.88;;;23.50;;
37485;SDS011;23341;50.296;18.960;2023-02-15T03:30:21;47.30;;;24.88;;
37485;SDS011;23341;50.296;18.960;2023-02-15T03:35:31;49.83;;;25.88;;
37485;SDS011;23341;50.296;18.960;2023-02-15T03:40:41;45.22;;;24.88;;
37485;SDS011;23341;50.296;18.960;2023-02-15T03:46:05;46.50;;;24.10;;
37485;SDS011;23341;50.296;18.960;2023-02-15T03:51:17;44.78;;;25.95;;
37485;SDS011;23341;50.296;18.960;2023-02-15T03:56:41;38.90;;;22.23;;
37485;SDS011;23341;50.296;18.960;2023-02-15T04:02:07;45.63;;;24.98;;
37485;SDS011;23341;50.296;18.960;2023-02-15T04:07:18;37.15;;;23.33;;
37485;SDS011;23341;50.296;18.960;2023-02-15T04:12:23;38.35;;;24.33;;
37485;SDS011;23341;50.296;18.960;2023-02-15T04:17:27;42.47;;;24.45;;
37485;SDS011;23341;50.296;18.960;2023-02-15T04:22:31;44.28;;;26.20;;
37485;SDS011;23341;50.296;18.960;2023-02-15T04:27:54;45.08;;;26.50;;
37485;SDS011;23341;50.296;18.960;2023-02-15T04:32:57;50.47;;;26.58;;
37485;SDS011;23341;50.296;18.960;2023-02-15T04:38:01;56.50;;;27.60;;
37485;SDS011;23341;50.296;18.960;2023-02-15T04:43:06;51.38;;;27.85;;
37485;SDS011;23341;50.296;18.960;2023-02-15T04:48:10;58.15;;;27.55;;
37485;SDS011;23341;50.296;18.960;2023-02-15T04:53:13;50.63;;;26.27;;
37485;SDS011;23341;50.296;18.960;2023-02-15T04:58:20;52.92;;;28.75;;
37485;SDS011;23341;50.296;18.960;2023-02-15T05:03:24;56.08;;;27.73;;
37485;SDS011;23341;50.296;18.960;2023-02-15T05:08:28;46.58;;;25.35;;
37485;SDS011;23341;50.296;18.960;2023-02-15T05:13:33;161.90;;;62.58;;
37485;SDS011;23341;50.296;18.960;2023-02-15T05:18:37;54.30;;;27.88;;
37485;SDS011;23341;50.296;18.960;2023-02-15T05:23:41;205.18;;;78.45;;
37485;SDS011;23341;50.296;18.960;2023-02-15T05:28:46;58.50;;;29.20;;
37485;SDS011;23341;50.296;18.960;2023-02-15T05:33:50;61.15;;;29.13;;
37485;SDS011;23341;50.296;18.960;2023-02-15T05:38:54;78.45;;;37.83;;
37485;SDS011;23341;50.296;18.960;2023-02-15T05:44:00;222.65;;;78.85;;
37485;SDS011;23341;50.296;18.960;2023-02-15T05:49:03;91.35;;;52.85;;
37485;SDS011;23341;50.296;18.960;2023-02-15T05:54:08;65.45;;;34.47;;
37485;SDS011;23341;50.296;18.960;2023-02-15T05:59:13;69.40;;;34.13;;
37485;SDS011;23341;50.296;18.960;2023-02-15T06:04:17;369.10;;;136.27;;
37485;SDS011;23341;50.296;18.960;2023-02-15T06:09:21;69.65;;;32.20;;
37485;SDS011;23341;50.296;18.960;2023-02-15T06:14:26;61.60;;;30.60;;
37485;SDS011;23341;50.296;18.960;2023-02-15T06:19:29;63.85;;;32.83;;
37485;SDS011;23341;50.296;18.960;2023-02-15T06:24:33;76.20;;;38.65;;
37485;SDS011;23341;50.296;18.960;2023-02-15T06:29:38;73.47;;;33.97;;
37485;SDS011;23341;50.296;18.960;2023-02-15T06:34:42;74.82;;;35.75;;
37485;SDS011;23341;50.296;18.960;2023-02-15T06:39:47;64.25;;;33.33;;
37485;SDS011;23341;50.296;18.960;2023-02-15T06:44:52;60.80;;;28.13;;
37485;SDS011;23341;50.296;18.960;2023-02-15T06:49:56;61.17;;;31.20;;
37485;SDS011;23341;50.296;18.960;2023-02-15T06:54:59;56.03;;;31.88;;
37485;SDS011;23341;50.296;18.960;2023-02-15T07:00:05;59.90;;;29.77;;
37485;SDS011;23341;50.296;18.960;2023-02-15T07:05:10;56.53;;;30.20;;
37485;SDS011;23341;50.296;18.960;2023-02-15T07:10:14;59.13;;;30.20;;
37485;SDS011;23341;50.296;18.960;2023-02-15T07:15:19;78.72;;;37.40;;
37485;SDS011;23341;50.296;18.960;2023-02-15T07:20:23;53.88;;;29.75;;
37485;SDS011;23341;50.296;18.960;2023-02-15T07:25:27;51.47;;;28.83;;
37485;SDS011;23341;50.296;18.960;2023-02-15T07:30:32;70.93;;;41.05;;
37485;SDS011;23341;50.296;18.960;2023-02-15T07:35:38;134.68;;;59.33;;
37485;SDS011;23341;50.296;18.960;2023-02-15T07:40:41;77.57;;;38.65;;
37485;SDS011;23341;50.296;18.960;2023-02-15T07:45:47;86.88;;;44.40;;
37485;SDS011;23341;50.296;18.960;2023-02-15T07:50:51;81.15;;;39.80;;
37485;SDS011;23341;50.296;18.960;2023-02-15T07:55:57;62.80;;;34.45;;
37485;SDS011;23341;50.296;18.960;2023-02-15T08:01:04;60.08;;;33.53;;
37485;SDS011;23341;50.296;18.960;2023-02-15T08:06:08;56.28;;;31.73;;
37485;SDS011;23341;50.296;18.960;2023-02-15T08:11:15;55.20;;;31.17;;
37485;SDS011;23341;50.296;18.960;2023-02-15T08:16:37;58.10;;;28.55;;
37485;SDS011;23341;50.296;18.960;2023-02-15T08:21:42;56.15;;;32.55;;
37485;SDS011;23341;50.296;18.960;2023-02-15T08:26:47;53.40;;;31.45;;
37485;SDS011;23341;50.296;18.960;2023-02-15T08:31:54;55.90;;;31.02;;
37485;SDS011;23341;50.296;18.960;2023-02-15T08:42:04;55.17;;;31.50;;
37485;SDS011;23341;50.296;18.960;2023-02-15T08:47:09;41.90;;;26.27;;
37485;SDS011;23341;50.296;18.960;2023-02-15T08:52:13;51.08;;;27.98;;
37485;SDS011;23341;50.296;18.960;2023-02-15T08:57:18;51.40;;;30.75;;
37485;SDS011;23341;50.296;18.960;2023-02-15T09:02:23;51.10;;;28.58;;
37485;SDS011;23341;50.296;18.960;2023-02-15T09:07:27;62.70;;;31.13;;
37485;SDS011;23341;50.296;18.960;2023-02-15T09:12:31;44.10;;;26.70;;
37485;SDS011;23341;50.296;18.960;2023-02-15T09:17:36;57.67;;;33.05;;
37485;SDS011;23341;50.296;18.960;2023-02-15T09:22:40;66.47;;;33.85;;
37485;SDS011;23341;50.296;18.960;2023-02-15T09:27:44;42.05;;;26.52;;
37485;SDS011;23341;50.296;18.960;2023-02-15T09:32:49;49.08;;;30.40;;
37485;SDS011;23341;50.296;18.960;2023-02-15T09:37:53;44.63;;;28.85;;
37485;SDS011;23341;50.296;18.960;2023-02-15T09:43:04;37.80;;;24.90;;
37485;SDS011;23341;50.296;18.960;2023-02-15T09:48:24;38.97;;;24.55;;
37485;SDS011;23341;50.296;18.960;2023-02-15T09:53:46;40.70;;;25.55;;
37485;SDS011;23341;50.296;18.960;2023-02-15T09:59:00;44.50;;;27.63;;
37485;SDS011;23341;50.296;18.960;2023-02-15T10:04:27;36.30;;;24.63;;
37485;SDS011;23341;50.296;18.960;2023-02-15T10:09:49;43.55;;;23.90;;
37485;SDS011;23341;50.296;18.960;2023-02-15T10:20:31;31.88;;;22.05;;
37485;SDS011;23341;50.296;18.960;2023-02-15T10:25:42;41.33;;;23.63;;
37485;SDS011;23341;50.296;18.960;2023-02-15T10:30:51;42.92;;;23.88;;
37485;SDS011;23341;50.296;18.960;2023-02-15T10:36:09;37.95;;;19.38;;
37485;SDS011;23341;50.296;18.960;2023-02-15T10:41:26;27.70;;;18.38;;
37485;SDS011;23341;50.296;18.960;2023-02-15T10:46:46;27.85;;;17.77;;
37485;SDS011;23341;50.296;18.960;2023-02-15T10:52:05;34.67;;;19.33;;
37485;SDS011;23341;50.296;18.960;2023-02-15T10:57:22;26.35;;;18.52;;
37485;SDS011;23341;50.296;18.960;2023-02-15T11:02:40;25.80;;;16.08;;
37485;SDS011;23341;50.296;18.960;2023-02-15T11:07:59;25.88;;;17.25;;
37485;SDS011;23341;50.296;18.960;2023-02-15T11:13:08;31.83;;;16.97;;
37485;SDS011;23341;50.296;18.960;2023-02-15T11:18:15;22.58;;;15.75;;
37485;SDS011;23341;50.296;18.960;2023-02-15T11:23:29;26.58;;;16.80;;
37485;SDS011;23341;50.296;18.960;2023-02-15T11:28:39;29.23;;;16.45;;
37485;SDS011;23341;50.296;18.960;2023-02-15T11:33:47;27.15;;;17.70;;
37485;SDS011;23341;50.296;18.960;2023-02-15T11:38:58;32.30;;;18.63;;
37485;SDS011;23341;50.296;18.960;2023-02-15T11:44:06;23.98;;;17.00;;
37485;SDS011;23341;50.296;18.960;2023-02-15T11:49:21;29.05;;;16.55;;
37485;SDS011;23341;50.296;18.960;2023-02-15T11:59:34;27.70;;;16.33;;
37485;SDS011;23341;50.296;18.960;2023-02-15T12:04:41;23.33;;;15.13;;
37485;SDS011;23341;50.296;18.960;2023-02-15T12:09:52;23.52;;;14.73;;
37485;SDS011;23341;50.296;18.960;2023-02-15T12:15:04;21.33;;;15.60;;
37485;SDS011;23341;50.296;18.960;2023-02-15T12:20:20;28.58;;;16.50;;
37485;SDS011;23341;50.296;18.960;2023-02-15T12:25:33;27.17;;;16.25;;
37485;SDS011;23341;50.296;18.960;2023-02-15T12:30:41;24.65;;;14.55;;
37485;SDS011;23341;50.296;18.960;2023-02-15T12:35:46;25.40;;;15.50;;
37485;SDS011;23341;50.296;18.960;2023-02-15T12:41:00;22.80;;;15.93;;
37485;SDS011;23341;50.296;18.960;2023-02-15T12:46:20;26.35;;;15.27;;
37485;SDS011;23341;50.296;18.960;2023-02-15T12:51:25;33.10;;;16.60;;
37485;SDS011;23341;50.296;18.960;2023-02-15T12:56:30;57.10;;;18.23;;
37485;SDS011;23341;50.296;18.960;2023-02-15T13:01:34;23.00;;;15.40;;
37485;SDS011;23341;50.296;18.960;2023-02-15T13:06:38;20.45;;;13.68;;
37485;SDS011;23341;50.296;18.960;2023-02-15T13:11:52;26.55;;;15.18;;
37485;SDS011;23341;50.296;18.960;2023-02-15T13:16:57;30.05;;;15.50;;
37485;SDS011;23341;50.296;18.960;2023-02-15T13:22:05;24.67;;;14.68;;
37485;SDS011;23341;50.296;18.960;2023-02-15T13:27:16;19.83;;;13.10;;
37485;SDS011;23341;50.296;18.960;2023-02-15T13:32:25;17.03;;;12.07;;
37485;SDS011;23341;50.296;18.960;2023-02-15T13:37:45;26.13;;;14.02;;
37485;SDS011;23341;50.296;18.960;2023-02-15T13:43:03;19.38;;;13.77;;
37485;SDS011;23341;50.296;18.960;2023-02-15T13:48:15;16.33;;;10.18;;
37485;SDS011;23341;50.296;18.960;2023-02-15T13:53:52;37.95;;;16.50;;
37485;SDS011;23341;50.296;18.960;2023-02-15T13:59:22;26.55;;;13.93;;
37485;SDS011;23341;50.296;18.960;2023-02-15T14:04:51;16.80;;;11.95;;
37485;SDS011;23341;50.296;18.960;2023-02-15T14:15:41;17.88;;;12.60;;
37485;SDS011;23341;50.296;18.960;2023-02-15T14:20:53;66.30;;;26.38;;
37485;SDS011;23341;50.296;18.960;2023-02-15T14:26:06;39.45;;;22.80;;
37485;SDS011;23341;50.296;18.960;2023-02-15T14:31:18;32.67;;;18.38;;
37485;SDS011;23341;50.296;18.960;2023-02-15T14:36:30;25.73;;;14.38;;
37485;SDS011;23341;50.296;18.960;2023-02-15T14:41:36;27.30;;;15.35;;
37485;SDS011;23341;50.296;18.960;2023-02-15T14:46:50;31.65;;;19.25;;
37485;SDS011;23341;50.296;18.960;2023-02-15T14:52:00;27.52;;;16.98;;
37485;SDS011;23341;50.296;18.960;2023-02-15T15:02:43;123.53;;;59.03;;
37485;SDS011;23341;50.296;18.960;2023-02-15T15:07:51;27.37;;;17.97;;
37485;SDS011;23341;50.296;18.960;2023-02-15T15:12:57;28.85;;;18.05;;
37485;SDS011;23341;50.296;18.960;2023-02-15T15:18:03;30.85;;;18.70;;
37485;SDS011;23341;50.296;18.960;2023-02-15T15:28:53;40.10;;;23.85;;
37485;SDS011;23341;50.296;18.960;2023-02-15T15:34:15;59.97;;;34.08;;
37485;SDS011;23341;50.296;18.960;2023-02-15T15:50:52;71.85;;;41.75;;
37485;SDS011;23341;50.296;18.960;2023-02-15T15:55:58;50.55;;;27.80;;
37485;SDS011;23341;50.296;18.960;2023-02-15T16:01:08;96.97;;;47.60;;
37485;SDS011;23341;50.296;18.960;2023-02-15T16:06:27;58.20;;;29.55;;
37485;SDS011;23341;50.296;18.960;2023-02-15T16:11:33;62.60;;;35.08;;
37485;SDS011;23341;50.296;18.960;2023-02-15T16:16:37;72.82;;;37.58;;
37485;SDS011;23341;50.296;18.960;2023-02-15T16:21:42;74.82;;;40.08;;
37485;SDS011;23341;50.296;18.960;2023-02-15T16:26:59;72.72;;;36.25;;
37485;SDS011;23341;50.296;18.960;2023-02-15T16:32:20;95.93;;;42.67;;
37485;SDS011;23341;50.296;18.960;2023-02-15T16:37:27;101.28;;;42.45;;
37485;SDS011;23341;50.296;18.960;2023-02-15T16:42:35;89.78;;;46.22;;
37485;SDS011;23341;50.296;18.960;2023-02-15T16:47:40;106.10;;;58.28;;
37485;SDS011;23341;50.296;18.960;2023-02-15T16:52:47;164.23;;;67.38;;
37485;SDS011;23341;50.296;18.960;2023-02-15T16:57:52;118.22;;;58.90;;
37485;SDS011;23341;50.296;18.960;2023-02-15T17:03:01;122.65;;;62.00;;
37485;SDS011;23341;50.296;18.960;2023-02-15T17:08:16;147.98;;;73.95;;
37485;SDS011;23341;50.296;18.960;2023-02-15T17:13:21;159.65;;;77.97;;
37485;SDS011;23341;50.296;18.960;2023-02-15T17:18:27;131.77;;;65.90;;
37485;SDS011;23341;50.296;18.960;2023-02-15T17:23:35;125.53;;;58.90;;
37485;SDS011;23341;50.296;18.960;2023-02-15T17:28:44;138.38;;;63.92;;
37485;SDS011;23341;50.296;18.960;2023-02-15T17:33:50;117.05;;;54.13;;
37485;SDS011;23341;50.296;18.960;2023-02-15T17:39:03;97.80;;;50.72;;
37485;SDS011;23341;50.296;18.960;2023-02-15T17:44:08;101.40;;;53.40;;
37485;SDS011;23341;50.296;18.960;2023-02-15T17:49:18;103.75;;;51.22;;
37485;SDS011;23341;50.296;18.960;2023-02-15T17:54:28;90.45;;;43.53;;
37485;SDS011;23341;50.296;18.960;2023-02-15T17:59:50;114.85;;;58.25;;
37485;SDS011;23341;50.296;18.960;2023-02-15T18:05:13;105.50;;;52.85;;
37485;SDS011;23341;50.296;18.960;2023-02-15T18:10:37;87.68;;;45.85;;
37485;SDS011;23341;50.296;18.960;2023-02-15T18:15:59;85.20;;;44.28;;
37485;SDS011;23341;50.296;18.960;2023-02-15T18:21:03;89.22;;;46.28;;
37485;SDS011;23341;50.296;18.960;2023-02-15T18:26:16;104.10;;;58.40;;
37485;SDS011;23341;50.296;18.960;2023-02-15T18:31:21;101.30;;;53.50;;
37485;SDS011;23341;50.296;18.960;2023-02-15T18:36:27;79.88;;;41.63;;
37485;SDS011;23341;50.296;18.960;2023-02-15T18:41:35;80.93;;;43.13;;
37485;SDS011;23341;50.296;18.960;2023-02-15T18:46:38;88.88;;;45.03;;
37485;SDS011;23341;50.296;18.960;2023-02-15T18:51:43;91.53;;;51.17;;
37485;SDS011;23341;50.296;18.960;2023-02-15T18:56:50;77.53;;;39.63;;
37485;SDS011;23341;50.296;18.960;2023-02-15T19:01:56;92.10;;;46.03;;
37485;SDS011;23341;50.296;18.960;2023-02-15T19:07:01;91.50;;;44.58;;
37485;SDS011;23341;50.296;18.960;2023-02-15T19:12:08;78.30;;;41.38;;
37485;SDS011;23341;50.296;18.960;2023-02-15T19:17:15;93.80;;;49.22;;
37485;SDS011;23341;50.296;18.960;2023-02-15T19:22:22;104.30;;;49.63;;
37485;SDS011;23341;50.296;18.960;2023-02-15T19:27:30;104.28;;;51.53;;
37485;SDS011;23341;50.296;18.960;2023-02-15T19:32:36;114.57;;;56.38;;
37485;SDS011;23341;50.296;18.960;2023-02-15T19:37:40;112.57;;;52.15;;
37485;SDS011;23341;50.296;18.960;2023-02-15T19:42:47;109.13;;;49.95;;
37485;SDS011;23341;50.296;18.960;2023-02-15T19:47:52;105.63;;;48.72;;
37485;SDS011;23341;50.296;18.960;2023-02-15T19:52:56;103.22;;;50.67;;
37485;SDS011;23341;50.296;18.960;2023-02-15T19:58:01;114.68;;;55.95;;
37485;SDS011;23341;50.296;18.960;2023-02-15T20:03:08;126.63;;;57.33;;
37485;SDS011;23341;50.296;18.960;2023-02-15T20:08:13;106.60;;;53.85;;
37485;SDS011;23341;50.296;18.960;2023-02-15T20:13:21;86.82;;;37.88;;
37485;SDS011;23341;50.296;18.960;2023-02-15T20:18:24;106.68;;;50.03;;
37485;SDS011;23341;50.296;18.960;2023-02-15T20:23:29;126.32;;;63.65;;
37485;SDS011;23341;50.296;18.960;2023-02-15T20:28:37;105.10;;;50.88;;
37485;SDS011;23341;50.296;18.960;2023-02-15T20:33:41;111.40;;;52.90;;
37485;SDS011;23341;50.296;18.960;2023-02-15T20:38:45;118.32;;;58.60;;
37485;SDS011;23341;50.296;18.960;2023-02-15T20:43:50;104.25;;;50.95;;
37485;SDS011;23341;50.296;18.960;2023-02-15T20:48:54;124.60;;;62.53;;
37485;SDS011;23341;50.296;18.960;2023-02-15T20:53:58;100.32;;;49.05;;
37485;SDS011;23341;50.296;18.960;2023-02-15T20:59:05;107.63;;;53.97;;
37485;SDS011;23341;50.296;18.960;2023-02-15T21:04:20;123.20;;;59.65;;
37485;SDS011;23341;50.296;18.960;2023-02-15T21:09:27;136.57;;;62.58;;
37485;SDS011;23341;50.296;18.960;2023-02-15T21:14:34;100.88;;;44.33;;
37485;SDS011;23341;50.296;18.960;2023-02-15T21:19:37;119.05;;;59.72;;
37485;SDS011;23341;50.296;18.960;2023-02-15T21:24:43;146.68;;;78.65;;
37485;SDS011;23341;50.296;18.960;2023-02-15T21:29:52;133.27;;;65.45;;
37485;SDS011;23341;50.296;18.960;2023-02-15T21:34:56;105.65;;;51.50;;
37485;SDS011;23341;50.296;18.960;2023-02-15T21:40:00;123.78;;;65.00;;
37485;SDS011;23341;50.296;18.960;2023-02-15T21:45:13;99.35;;;46.75;;
37485;SDS011;23341;50.296;18.960;2023-02-15T21:50:36;115.35;;;48.33;;
37485;SDS011;23341;50.296;18.960;2023-02-15T21:55:58;113.60;;;52.10;;
37485;SDS011;23341;50.296;18.960;2023-02-15T22:01:05;115.85;;;52.72;;
37485;SDS011;23341;50.296;18.960;2023-02-15T22:06:10;119.93;;;49.92;;
37485;SDS011;23341;50.296;18.960;2023-02-15T22:11:16;105.68;;;46.70;;
37485;SDS011;23341;50.296;18.960;2023-02-15T22:16:22;92.80;;;45.75;;
37485;SDS011;23341;50.296;18.960;2023-02-15T22:21:26;94.82;;;41.03;;
37485;SDS011;23341;50.296;18.960;2023-02-15T22:26:32;97.18;;;42.95;;
37485;SDS011;23341;50.296;18.960;2023-02-15T22:31:37;93.82;;;43.92;;
37485;SDS011;23341;50.296;18.960;2023-02-15T22:36:42;115.22;;;48.95;;
37485;SDS011;23341;50.296;18.960;2023-02-15T22:41:45;100.18;;;43.45;;
37485;SDS011;23341;50.296;18.960;2023-02-15T22:46:50;96.72;;;45.42;;
37485;SDS011;23341;50.296;18.960;2023-02-15T22:51:55;103.40;;;42.58;;
37485;SDS011;23341;50.296;18.960;2023-02-15T22:56:58;92.07;;;41.90;;
37485;SDS011;23341;50.296;18.960;2023-02-15T23:02:04;83.97;;;40.28;;
37485;SDS011;23341;50.296;18.960;2023-02-15T23:07:12;83.88;;;38.60;;
37485;SDS011;23341;50.296;18.960;2023-02-15T23:17:26;98.38;;;44.03;;
37485;SDS011;23341;50.296;18.960;2023-02-15T23:22:30;93.07;;;42.38;;
37485;SDS011;23341;50.296;18.960;2023-02-15T23:27:34;82.82;;;38.45;;
37485;SDS011;23341;50.296;18.960;2023-02-15T23:32:57;90.75;;;36.78;;
37485;SDS011;23341;50.296;18.960;2023-02-15T23:38:01;82.65;;;37.25;;
37485;SDS011;23341;50.296;18.960;2023-02-15T23:43:05;93.28;;;41.88;;
37485;SDS011;23341;50.296;18.960;2023-02-15T23:48:21;89.83;;;38.87;;
37485;SDS011;23341;50.296;18.960;2023-02-15T23:53:32;85.75;;;39.63;;
37485;SDS011;23341;50.296;18.960;2023-02-15T23:58:36;92.30;;;39.85;;
